Time;durP1;ratioP1;P1;durP2;ratioP2;P2;SDS_P1;SDS_P2;PMS_P1;PMS_P2;Temp;Humidity;BMP_temperature;BMP_pressure;BME280_temperature;BME280_humidity;BME280_pressure;Samples;Min_cycle;Max_cycle;Signal;HPM_P1;HPM_P2
2021/01/14 00:01:57;;;;;;;72.97;40.03;;;;;;;;;;5072139;28;20238;-85
2021/01/14 00:04:22;;;;;;;61.07;31.27;;;;;;;;;;5073282;28;20211;-86
2021/01/14 00:06:50;;;;;;;56.73;27.90;;;;;;;;;;5073370;28;20194;-85
2021/01/14 00:09:16;;;;;;;53.03;28.73;;;;;;;;;;5073786;28;20481;-86
2021/01/14 00:11:44;;;;;;;57.83;30.07;;;;;;;;;;5073840;28;20178;-86
2021/01/14 00:14:10;;;;;;;55.60;29.33;;;;;;;;;;5073692;28;20197;-86
2021/01/14 00:16:35;;;;;;;62.80;33.80;;;;;;;;;;5073414;28;20198;-86
2021/01/14 00:19:00;;;;;;;66.80;36.03;;;;;;;;;;5073521;28;20164;-86
2021/01/14 00:21:25;;;;;;;56.20;32.13;;;;;;;;;;5073359;28;20514;-86
2021/01/14 00:23:51;;;;;;;49.77;28.70;;;;;;;;;;5073381;28;20245;-85
2021/01/14 00:26:16;;;;;;;46.77;28.40;;;;;;;;;;5073782;28;20489;-86
2021/01/14 00:28:41;;;;;;;48.87;26.93;;;;;;;;;;5073195;28;20617;-86
2021/01/14 00:31:07;;;;;;;45.70;26.63;;;;;;;;;;5072915;28;20164;-86
2021/01/14 00:33:32;;;;;;;52.53;28.23;;;;;;;;;;5073111;28;20210;-86
2021/01/14 00:35:57;;;;;;;48.57;27.70;;;;;;;;;;5072793;28;20169;-86
2021/01/14 00:38:23;;;;;;;46.63;27.03;;;;;;;;;;5073325;28;20273;-86
2021/01/14 00:40:48;;;;;;;53.10;28.47;;;;;;;;;;5072728;28;20190;-85
2021/01/14 00:43:13;;;;;;;48.00;28.73;;;;;;;;;;5072495;28;20195;-86
2021/01/14 00:45:39;;;;;;;56.20;31.33;;;;;;;;;;5072144;28;20502;-85
2021/01/14 00:48:04;;;;;;;53.10;29.87;;;;;;;;;;5072594;28;20175;-85
2021/01/14 00:50:30;;;;;;;52.30;30.93;;;;;;;;;;5072493;28;20174;-85
2021/01/14 00:52:55;;;;;;;51.70;31.93;;;;;;;;;;5072845;28;20552;-86
2021/01/14 00:55:21;;;;;;;57.40;33.33;;;;;;;;;;5073015;28;20183;-86
2021/01/14 00:57:46;;;;;;;58.47;32.60;;;;;;;;;;5071309;28;20183;-86
2021/01/14 01:00:13;;;;;;;52.40;29.73;;;;;;;;;;5072418;28;20166;-86
2021/01/14 01:02:42;;;;;;;48.50;28.00;;;;;;;;;;5072077;28;20174;-86
2021/01/14 01:05:09;;;;;;;51.93;29.03;;;;;;;;;;5072737;28;20206;-86
2021/01/14 01:07:34;;;;;;;52.13;30.03;;;;;;;;;;5071029;28;20205;-86
2021/01/14 01:09:59;;;;;;;46.67;28.20;;;;;;;;;;5072151;28;20202;-86
2021/01/14 01:12:24;;;;;;;50.77;28.77;;;;;;;;;;5072215;28;20704;-86
2021/01/14 01:14:50;;;;;;;52.40;30.87;;;;;;;;;;5072261;28;20260;-86
2021/01/14 01:17:15;;;;;;;48.50;28.23;;;;;;;;;;5071989;28;20182;-86
2021/01/14 01:19:40;;;;;;;46.17;26.47;;;;;;;;;;5071793;28;20243;-86
2021/01/14 01:22:06;;;;;;;45.00;26.53;;;;;;;;;;5071863;28;20574;-86
2021/01/14 01:24:31;;;;;;;41.03;24.57;;;;;;;;;;5071988;28;20199;-86
2021/01/14 01:26:57;;;;;;;47.13;27.33;;;;;;;;;;5070659;28;20237;-86
2021/01/14 01:29:22;;;;;;;47.93;27.53;;;;;;;;;;5071885;28;20183;-86
2021/01/14 01:31:47;;;;;;;57.70;33.07;;;;;;;;;;5071734;28;20216;-86
2021/01/14 01:34:13;;;;;;;69.90;38.47;;;;;;;;;;5071829;28;20171;-86
2021/01/14 01:36:38;;;;;;;61.77;35.30;;;;;;;;;;5072178;28;20171;-86
2021/01/14 01:39:04;;;;;;;66.93;36.17;;;;;;;;;;5072124;28;20301;-86
2021/01/14 01:41:29;;;;;;;63.57;35.97;;;;;;;;;;5071810;28;20610;-86
2021/01/14 01:43:55;;;;;;;54.47;31.67;;;;;;;;;;5071814;28;20602;-86
2021/01/14 01:46:24;;;;;;;45.43;26.67;;;;;;;;;;5071702;28;20514;-85
2021/01/14 01:48:50;;;;;;;47.17;27.80;;;;;;;;;;5071601;28;20637;-86
2021/01/14 01:51:15;;;;;;;45.43;26.70;;;;;;;;;;5071537;28;20628;-86
2021/01/14 01:53:41;;;;;;;42.70;25.40;;;;;;;;;;5071479;28;20784;-86
2021/01/14 01:56:07;;;;;;;45.33;25.57;;;;;;;;;;5070697;28;20533;-86
2021/01/14 01:58:34;;;;;;;40.80;24.67;;;;;;;;;;5071540;28;20309;-86
2021/01/14 02:01:00;;;;;;;51.60;30.37;;;;;;;;;;5071187;28;20309;-86
2021/01/14 02:03:29;;;;;;;50.37;29.30;;;;;;;;;;5071609;28;20203;-86
2021/01/14 02:05:55;;;;;;;68.63;35.27;;;;;;;;;;5071374;28;20171;-86
2021/01/14 02:08:26;;;;;;;71.73;38.03;;;;;;;;;;5071105;28;20525;-85
2021/01/14 02:10:57;;;;;;;62.10;35.33;;;;;;;;;;5071269;28;20307;-85
2021/01/14 02:13:28;;;;;;;80.47;40.07;;;;;;;;;;5071424;28;20175;-86
2021/01/14 02:15:56;;;;;;;85.40;43.33;;;;;;;;;;5071231;28;20254;-86
2021/01/14 02:18:22;;;;;;;91.53;47.63;;;;;;;;;;5070942;28;20833;-85
2021/01/14 02:20:54;;;;;;;92.70;45.20;;;;;;;;;;5071024;28;20171;-86
2021/01/14 02:23:32;;;;;;;88.80;45.03;;;;;;;;;;5071336;28;20206;-85
2021/01/14 02:26:04;;;;;;;77.73;41.17;;;;;;;;;;5071137;28;20163;-85
2021/01/14 02:28:30;;;;;;;81.27;45.33;;;;;;;;;;5071093;28;20630;-85
2021/01/14 02:30:55;;;;;;;73.73;39.97;;;;;;;;;;5071311;28;20175;-85
2021/01/14 02:33:21;;;;;;;69.63;38.57;;;;;;;;;;5070980;28;20175;-85
2021/01/14 02:35:46;;;;;;;74.03;40.53;;;;;;;;;;5070770;28;20256;-86
2021/01/14 02:38:11;;;;;;;90.53;48.10;;;;;;;;;;5071444;28;20644;-85
2021/01/14 02:40:37;;;;;;;83.33;42.90;;;;;;;;;;5071015;28;20171;-85
2021/01/14 02:43:02;;;;;;;84.17;42.87;;;;;;;;;;5070728;28;20206;-86
2021/01/14 02:45:27;;;;;;;71.90;41.37;;;;;;;;;;5070635;28;20163;-85
2021/01/14 02:47:53;;;;;;;71.70;39.97;;;;;;;;;;5070583;28;20164;-85
2021/01/14 02:50:19;;;;;;;69.07;38.57;;;;;;;;;;5070786;28;20163;-85
2021/01/14 02:52:46;;;;;;;80.57;41.10;;;;;;;;;;5070930;28;20181;-85
2021/01/14 02:55:12;;;;;;;73.60;40.80;;;;;;;;;;5070854;28;20218;-85
2021/01/14 02:57:38;;;;;;;75.70;40.63;;;;;;;;;;5070810;28;20323;-85
2021/01/14 03:00:04;;;;;;;77.70;42.43;;;;;;;;;;5070884;28;20236;-85
2021/01/14 03:02:29;;;;;;;76.50;40.73;;;;;;;;;;5070174;28;20692;-85
2021/01/14 03:04:55;;;;;;;89.60;43.63;;;;;;;;;;5071121;28;20186;-85
2021/01/14 03:07:20;;;;;;;101.00;49.30;;;;;;;;;;5070822;28;20179;-85
2021/01/14 03:09:45;;;;;;;154.70;66.90;;;;;;;;;;5074721;28;20258;-85
2021/01/14 03:12:11;;;;;;;196.93;81.93;;;;;;;;;;5074259;28;20168;-85
2021/01/14 03:14:36;;;;;;;126.63;54.67;;;;;;;;;;5074691;28;20178;-85
2021/01/14 03:17:01;;;;;;;78.90;40.83;;;;;;;;;;5074551;28;20171;-85
2021/01/14 03:19:27;;;;;;;59.87;33.87;;;;;;;;;;5074235;28;20175;-86
2021/01/14 03:21:57;;;;;;;53.97;30.80;;;;;;;;;;5074174;28;20179;-86
2021/01/14 03:24:22;;;;;;;54.33;31.73;;;;;;;;;;5074363;28;20191;-86
2021/01/14 03:26:48;;;;;;;53.33;30.83;;;;;;;;;;5074397;28;20182;-85
2021/01/14 03:29:13;;;;;;;49.10;30.13;;;;;;;;;;5074303;28;20241;-86
2021/01/14 03:31:38;;;;;;;54.70;32.00;;;;;;;;;;5074260;28;20170;-86
2021/01/14 03:34:03;;;;;;;60.80;33.23;;;;;;;;;;5073973;28;20176;-86
2021/01/14 03:36:32;;;;;;;66.00;33.93;;;;;;;;;;5074393;28;20644;-86
2021/01/14 03:38:57;;;;;;;54.10;31.40;;;;;;;;;;5074221;28;20178;-86
2021/01/14 03:41:23;;;;;;;63.27;32.63;;;;;;;;;;5073753;28;20167;-86
2021/01/14 03:43:48;;;;;;;59.20;33.50;;;;;;;;;;5073696;28;20552;-85
2021/01/14 03:46:14;;;;;;;69.27;36.97;;;;;;;;;;5072646;28;20175;-85
2021/01/14 03:48:41;;;;;;;74.30;38.47;;;;;;;;;;5073618;28;20550;-85
2021/01/14 03:51:13;;;;;;;82.63;40.57;;;;;;;;;;5073733;28;20175;-85
2021/01/14 03:53:38;;;;;;;72.97;38.97;;;;;;;;;;5073928;28;20209;-85
2021/01/14 03:56:04;;;;;;;70.80;37.73;;;;;;;;;;5073730;28;20661;-84
2021/01/14 03:58:29;;;;;;;75.50;37.37;;;;;;;;;;5073726;28;20175;-85
2021/01/14 04:00:54;;;;;;;73.10;37.27;;;;;;;;;;5073553;28;20332;-85
2021/01/14 04:03:20;;;;;;;70.00;37.40;;;;;;;;;;5073546;28;20205;-85
2021/01/14 04:05:48;;;;;;;73.57;39.00;;;;;;;;;;5073356;28;20175;-86
2021/01/14 04:08:13;;;;;;;70.43;37.83;;;;;;;;;;5073613;28;20171;-85
2021/01/14 04:10:39;;;;;;;85.80;45.97;;;;;;;;;;5073510;28;20182;-85
2021/01/14 04:13:04;;;;;;;95.20;52.60;;;;;;;;;;5073564;28;20196;-85
2021/01/14 04:15:29;;;;;;;100.93;52.90;;;;;;;;;;5073198;28;20567;-85
2021/01/14 04:17:55;;;;;;;126.20;64.90;;;;;;;;;;5073365;28;20171;-85
2021/01/14 04:20:20;;;;;;;117.33;59.90;;;;;;;;;;5071970;28;20183;-85
2021/01/14 04:22:45;;;;;;;107.13;54.40;;;;;;;;;;5073540;28;20186;-85
2021/01/14 04:25:11;;;;;;;106.63;57.03;;;;;;;;;;5073201;28;20175;-85
2021/01/14 04:27:36;;;;;;;111.13;55.50;;;;;;;;;;5073263;28;20179;-86
2021/01/14 04:30:03;;;;;;;104.03;53.73;;;;;;;;;;5073147;28;20521;-86
2021/01/14 04:32:31;;;;;;;104.27;54.93;;;;;;;;;;5072921;28;20199;-86
2021/01/14 04:34:57;;;;;;;126.53;70.07;;;;;;;;;;5073130;28;20812;-85
2021/01/14 04:37:22;;;;;;;125.80;68.37;;;;;;;;;;5073334;28;20179;-86
2021/01/14 04:39:47;;;;;;;123.97;73.13;;;;;;;;;;5073010;28;20171;-86
2021/01/14 04:42:13;;;;;;;138.17;82.50;;;;;;;;;;5072733;28;20672;-86
2021/01/14 04:44:38;;;;;;;132.93;80.40;;;;;;;;;;5072600;28;20202;-86
2021/01/14 04:47:06;;;;;;;130.87;80.03;;;;;;;;;;5073731;28;20175;-86
2021/01/14 04:49:32;;;;;;;115.13;62.43;;;;;;;;;;5074564;28;20197;-86
2021/01/14 04:52:01;;;;;;;115.23;71.17;;;;;;;;;;5072222;28;20621;-86
2021/01/14 04:54:31;;;;;;;101.87;59.97;;;;;;;;;;5072445;28;20179;-86
2021/01/14 04:57:00;;;;;;;92.53;51.90;;;;;;;;;;5072953;28;20191;-86
2021/01/14 04:59:27;;;;;;;79.87;42.73;;;;;;;;;;5072306;28;20654;-86
2021/01/14 05:01:56;;;;;;;80.17;46.20;;;;;;;;;;5072133;28;20301;-86
2021/01/14 05:04:25;;;;;;;73.27;42.70;;;;;;;;;;5072184;28;20195;-86
2021/01/14 05:06:56;;;;;;;79.00;43.53;;;;;;;;;;5072726;28;20175;-86
2021/01/14 05:09:23;;;;;;;80.93;44.53;;;;;;;;;;5072176;28;20172;-86
2021/01/14 05:11:54;;;;;;;81.67;47.53;;;;;;;;;;5072349;28;20229;-85
2021/01/14 05:14:20;;;;;;;91.10;49.23;;;;;;;;;;5072150;28;20195;-85
2021/01/14 05:16:47;;;;;;;103.30;58.97;;;;;;;;;;5072137;28;20630;-85
2021/01/14 05:19:13;;;;;;;101.10;58.80;;;;;;;;;;5072258;28;20699;-86
2021/01/14 05:21:39;;;;;;;98.80;57.03;;;;;;;;;;5072004;28;20175;-85
2021/01/14 05:24:08;;;;;;;104.73;55.47;;;;;;;;;;5071842;28;20565;-85
2021/01/14 05:26:33;;;;;;;96.90;53.77;;;;;;;;;;5071696;28;20228;-85
2021/01/14 05:29:09;;;;;;;94.23;50.63;;;;;;;;;;5072044;28;20171;-86
2021/01/14 05:31:35;;;;;;;92.50;51.97;;;;;;;;;;5071679;28;20232;-86
2021/01/14 05:34:00;;;;;;;96.57;53.27;;;;;;;;;;5071987;28;20171;-85
2021/01/14 05:36:25;;;;;;;96.53;54.60;;;;;;;;;;5071963;28;20205;-87
2021/01/14 05:38:51;;;;;;;94.20;52.67;;;;;;;;;;5071922;28;20164;-86
2021/01/14 05:41:20;;;;;;;134.20;76.60;;;;;;;;;;5072187;28;20632;-86
2021/01/14 05:43:47;;;;;;;131.40;72.90;;;;;;;;;;5071697;28;20199;-86
2021/01/14 05:46:19;;;;;;;129.00;70.93;;;;;;;;;;5071793;28;20190;-86
2021/01/14 05:48:45;;;;;;;131.87;69.53;;;;;;;;;;5072002;28;20210;-86
2021/01/14 05:51:17;;;;;;;136.20;71.97;;;;;;;;;;5071379;28;20194;-85
2021/01/14 05:54:12;;;;;;;137.00;69.07;;;;;;;;;;5071454;28;20514;-85
2021/01/14 05:56:41;;;;;;;126.27;54.60;;;;;;;;;;5054244;28;21021;-85
2021/01/14 05:59:15;;;;;;;96.73;54.10;;;;;;;;;;5071564;28;20182;-85
2021/01/14 06:01:53;;;;;;;97.50;50.67;;;;;;;;;;5070971;28;20234;-86
2021/01/14 06:04:20;;;;;;;143.50;68.10;;;;;;;;;;5071340;28;20206;-86
2021/01/14 06:06:45;;;;;;;149.63;67.90;;;;;;;;;;5071410;28;20183;-87
2021/01/14 06:09:12;;;;;;;119.63;57.53;;;;;;;;;;5071454;28;20182;-86
2021/01/14 06:11:37;;;;;;;90.33;50.93;;;;;;;;;;5071396;28;20521;-87
2021/01/14 06:14:03;;;;;;;85.83;48.37;;;;;;;;;;5070986;28;20179;-86
2021/01/14 06:16:28;;;;;;;86.43;46.57;;;;;;;;;;5071134;28;20182;-87
2021/01/14 06:19:06;;;;;;;128.37;53.77;;;;;;;;;;5071286;28;20175;-87
2021/01/14 06:21:47;;;;;;;80.20;42.60;;;;;;;;;;5071114;28;20288;-87
2021/01/14 06:24:26;;;;;;;79.13;41.53;;;;;;;;;;5071121;28;20641;-86
2021/01/14 06:26:52;;;;;;;67.77;40.60;;;;;;;;;;5071357;28;20246;-86
2021/01/14 06:29:23;;;;;;;74.23;41.63;;;;;;;;;;5071283;28;20613;-86
2021/01/14 06:31:48;;;;;;;81.13;43.53;;;;;;;;;;5071305;28;20163;-86
2021/01/14 06:34:14;;;;;;;78.13;42.53;;;;;;;;;;5071501;28;20653;-86
2021/01/14 06:36:41;;;;;;;81.27;42.93;;;;;;;;;;5071052;28;20175;-86
2021/01/14 06:39:11;;;;;;;89.30;45.53;;;;;;;;;;5071431;28;20182;-87
2021/01/14 06:41:41;;;;;;;85.30;43.40;;;;;;;;;;5071201;28;20182;-86
2021/01/14 06:44:07;;;;;;;77.80;39.97;;;;;;;;;;5074101;28;20199;-87
2021/01/14 06:46:33;;;;;;;69.83;38.13;;;;;;;;;;5074947;28;20217;-87
2021/01/14 06:48:59;;;;;;;61.07;35.80;;;;;;;;;;5075005;28;20182;-86
2021/01/14 06:51:30;;;;;;;68.40;37.10;;;;;;;;;;5074840;28;20176;-86
2021/01/14 06:53:57;;;;;;;69.53;38.37;;;;;;;;;;5074768;28;20173;-86
2021/01/14 06:56:23;;;;;;;70.00;40.13;;;;;;;;;;5074585;28;20735;-86
2021/01/14 06:58:50;;;;;;;75.20;39.73;;;;;;;;;;5075073;28;20263;-85
2021/01/14 07:01:16;;;;;;;65.53;36.40;;;;;;;;;;5074627;28;20230;-86
2021/01/14 07:03:54;;;;;;;70.70;38.23;;;;;;;;;;5074453;28;20245;-86
2021/01/14 07:06:22;;;;;;;65.97;33.67;;;;;;;;;;5074730;28;20258;-86
2021/01/14 07:09:07;;;;;;;64.80;36.90;;;;;;;;;;5074318;28;20648;-86
2021/01/14 07:11:33;;;;;;;65.90;36.63;;;;;;;;;;5074721;28;20163;-86
2021/01/14 07:14:07;;;;;;;67.43;36.47;;;;;;;;;;5074929;28;20175;-86
2021/01/14 07:16:35;;;;;;;89.90;45.80;;;;;;;;;;5074624;28;20163;-86
2021/01/14 07:19:01;;;;;;;108.83;47.03;;;;;;;;;;5074241;28;20644;-85
2021/01/14 07:21:34;;;;;;;132.23;52.70;;;;;;;;;;5074460;28;20171;-86
2021/01/14 07:24:20;;;;;;;144.13;57.57;;;;;;;;;;5074334;28;20191;-86
2021/01/14 07:26:47;;;;;;;74.43;36.67;;;;;;;;;;5074191;28;20506;-86
2021/01/14 07:29:13;;;;;;;79.20;39.13;;;;;;;;;;5074466;28;20253;-87
2021/01/14 07:31:45;;;;;;;73.63;38.63;;;;;;;;;;5073084;28;20171;-87
2021/01/14 07:34:29;;;;;;;83.60;40.47;;;;;;;;;;5074692;28;20183;-86
2021/01/14 07:36:54;;;;;;;79.80;41.03;;;;;;;;;;5074225;28;20249;-87
2021/01/14 07:39:40;;;;;;;92.93;41.57;;;;;;;;;;5074169;28;20271;-87
2021/01/14 07:42:05;;;;;;;88.53;42.47;;;;;;;;;;5072548;28;20171;-85
2021/01/14 07:44:30;;;;;;;78.00;36.60;;;;;;;;;;5073609;28;20195;-85
2021/01/14 07:46:56;;;;;;;80.30;40.67;;;;;;;;;;5073696;28;20178;-86
2021/01/14 07:49:28;;;;;;;73.53;36.37;;;;;;;;;;5074054;28;20254;-85
2021/01/14 07:51:53;;;;;;;66.00;36.13;;;;;;;;;;5073860;28;20171;-85
2021/01/14 07:54:19;;;;;;;79.17;37.50;;;;;;;;;;5073856;28;20172;-86
2021/01/14 07:56:51;;;;;;;86.73;41.53;;;;;;;;;;5073504;28;20270;-85
2021/01/14 07:59:27;;;;;;;68.77;35.87;;;;;;;;;;5073609;28;20172;-86
2021/01/14 08:01:59;;;;;;;66.70;36.17;;;;;;;;;;5073740;28;20226;-85
2021/01/14 08:04:24;;;;;;;54.97;28.80;;;;;;;;;;5073295;28;20687;-85
2021/01/14 08:06:49;;;;;;;61.90;33.77;;;;;;;;;;5073491;28;20278;-86
2021/01/14 08:09:14;;;;;;;78.17;37.63;;;;;;;;;;5073925;28;20178;-86
2021/01/14 08:11:46;;;;;;;94.43;40.80;;;;;;;;;;5073536;28;20171;-86
2021/01/14 08:14:18;;;;;;;100.63;42.27;;;;;;;;;;5073523;28;20203;-86
2021/01/14 08:16:43;;;;;;;105.03;45.20;;;;;;;;;;5074098;28;20202;-86
2021/01/14 08:19:14;;;;;;;127.03;50.90;;;;;;;;;;5073086;28;20626;-86
2021/01/14 08:21:49;;;;;;;117.30;47.17;;;;;;;;;;5073623;28;20179;-85
2021/01/14 08:24:34;;;;;;;130.00;52.03;;;;;;;;;;5073349;28;20331;-86
2021/01/14 08:27:00;;;;;;;106.43;47.70;;;;;;;;;;5072683;28;20180;-86
2021/01/14 08:29:33;;;;;;;82.83;39.63;;;;;;;;;;5072334;28;20175;-86
2021/01/14 08:31:59;;;;;;;63.20;34.97;;;;;;;;;;5064396;28;20249;-85
2021/01/14 08:34:24;;;;;;;61.20;32.57;;;;;;;;;;5053797;28;20676;-86
2021/01/14 08:36:52;;;;;;;60.03;32.60;;;;;;;;;;5053022;28;20183;-86
2021/01/14 08:39:19;;;;;;;60.93;34.27;;;;;;;;;;5053003;28;20175;-85
2021/01/14 08:41:47;;;;;;;65.43;38.90;;;;;;;;;;5056951;28;20298;-86
2021/01/14 08:44:12;;;;;;;70.87;38.03;;;;;;;;;;5070628;28;20206;-85
2021/01/14 08:46:38;;;;;;;65.67;37.67;;;;;;;;;;5089177;28;20190;-87
2021/01/14 08:49:24;;;;;;;63.83;34.50;;;;;;;;;;5094636;28;20254;-85
2021/01/14 08:51:59;;;;;;;66.67;36.90;;;;;;;;;;5093678;28;20178;-85
2021/01/14 08:54:25;;;;;;;64.67;34.70;;;;;;;;;;5092097;28;20190;-85
2021/01/14 08:57:02;;;;;;;57.67;32.70;;;;;;;;;;5092832;28;20194;-85
2021/01/14 08:59:28;;;;;;;51.30;29.33;;;;;;;;;;5091610;28;20547;-85
2021/01/14 09:01:56;;;;;;;55.10;31.83;;;;;;;;;;5092239;28;20226;-84
2021/01/14 09:04:25;;;;;;;52.03;30.53;;;;;;;;;;5092616;28;20551;-85
2021/01/14 09:06:50;;;;;;;52.80;30.67;;;;;;;;;;5090828;28;20186;-85
2021/01/14 09:09:16;;;;;;;52.53;31.63;;;;;;;;;;5092770;28;20178;-85
2021/01/14 09:11:42;;;;;;;50.47;31.07;;;;;;;;;;5090355;28;20181;-84
2021/01/14 09:14:08;;;;;;;52.97;30.57;;;;;;;;;;5082950;28;20600;-85
2021/01/14 09:16:33;;;;;;;54.57;32.13;;;;;;;;;;5091877;28;20250;-85
2021/01/14 09:18:59;;;;;;;56.63;32.93;;;;;;;;;;5093960;28;20245;-85
2021/01/14 09:21:24;;;;;;;60.63;31.83;;;;;;;;;;5080658;28;20245;-85
2021/01/14 09:23:49;;;;;;;60.73;34.47;;;;;;;;;;5073805;28;20561;-85
2021/01/14 09:26:20;;;;;;;55.80;30.00;;;;;;;;;;5073799;28;20190;-85
2021/01/14 09:28:52;;;;;;;52.43;30.93;;;;;;;;;;5073636;28;20160;-86
2021/01/14 09:31:18;;;;;;;61.80;32.70;;;;;;;;;;5070873;28;20623;-85
2021/01/14 09:33:44;;;;;;;52.93;30.80;;;;;;;;;;5073671;28;20178;-85
2021/01/14 09:36:14;;;;;;;50.33;29.60;;;;;;;;;;5090662;28;20170;-85
2021/01/14 09:38:42;;;;;;;52.33;29.30;;;;;;;;;;5093462;28;20170;-85
2021/01/14 09:41:08;;;;;;;51.63;30.70;;;;;;;;;;5082389;28;20208;-85
2021/01/14 09:43:34;;;;;;;57.80;32.93;;;;;;;;;;5072944;28;20238;-85
2021/01/14 09:46:01;;;;;;;47.73;28.77;;;;;;;;;;5053424;28;20564;-85
2021/01/14 09:48:26;;;;;;;48.10;27.37;;;;;;;;;;5072418;28;20613;-85
2021/01/14 09:50:52;;;;;;;57.97;32.47;;;;;;;;;;5073360;28;20178;-85
2021/01/14 09:53:18;;;;;;;69.93;36.40;;;;;;;;;;5072979;28;20171;-85
2021/01/14 09:55:43;;;;;;;54.97;31.00;;;;;;;;;;5073044;28;20546;-85
2021/01/14 09:58:18;;;;;;;46.73;26.10;;;;;;;;;;5072995;28;20163;-85
2021/01/14 10:00:44;;;;;;;64.03;34.07;;;;;;;;;;5071470;28;20179;-85
2021/01/14 10:03:10;;;;;;;77.60;41.27;;;;;;;;;;5073185;28;20187;-85
2021/01/14 10:05:36;;;;;;;59.07;30.43;;;;;;;;;;5085968;28;20522;-85
2021/01/14 10:08:09;;;;;;;51.33;28.53;;;;;;;;;;5093307;28;20184;-85
2021/01/14 10:10:34;;;;;;;46.13;24.40;;;;;;;;;;5078077;28;20634;-85
2021/01/14 10:12:59;;;;;;;47.80;25.97;;;;;;;;;;5068120;28;20186;-85
2021/01/14 10:15:25;;;;;;;51.40;28.40;;;;;;;;;;5072825;28;20167;-85
2021/01/14 10:17:50;;;;;;;52.50;26.50;;;;;;;;;;5071850;28;20171;-85
2021/01/14 10:20:16;;;;;;;39.23;24.63;;;;;;;;;;5073003;28;20170;-85
2021/01/14 10:22:45;;;;;;;39.33;24.23;;;;;;;;;;5072617;28;20168;-86
2021/01/14 10:25:10;;;;;;;40.03;24.97;;;;;;;;;;5072723;28;20882;-86
2021/01/14 10:27:36;;;;;;;45.57;25.07;;;;;;;;;;5072602;28;20254;-86
2021/01/14 10:30:20;;;;;;;46.93;26.87;;;;;;;;;;5071308;28;20244;-86
2021/01/14 10:32:46;;;;;;;49.50;28.03;;;;;;;;;;5072693;28;20186;-85
2021/01/14 10:35:28;;;;;;;51.33;28.80;;;;;;;;;;5072715;28;20185;-86
2021/01/14 10:38:04;;;;;;;47.60;27.63;;;;;;;;;;5073056;28;20531;-86
2021/01/14 10:40:33;;;;;;;45.80;27.90;;;;;;;;;;5073007;28;20644;-86
2021/01/14 10:43:00;;;;;;;46.63;28.10;;;;;;;;;;5072408;28;20175;-86
2021/01/14 10:45:26;;;;;;;41.87;26.30;;;;;;;;;;5072705;28;20983;-86
2021/01/14 10:48:03;;;;;;;47.63;27.57;;;;;;;;;;5071275;28;20237;-86
2021/01/14 10:50:29;;;;;;;45.27;26.20;;;;;;;;;;5072284;28;20498;-86
2021/01/14 10:52:54;;;;;;;51.27;28.20;;;;;;;;;;5072682;28;20224;-86
2021/01/14 10:55:19;;;;;;;47.10;26.87;;;;;;;;;;5072653;28;20191;-86
2021/01/14 10:57:52;;;;;;;40.10;23.43;;;;;;;;;;5072562;28;20175;-87
2021/01/14 11:00:18;;;;;;;41.47;25.07;;;;;;;;;;5072539;28;20178;-87
2021/01/14 11:02:45;;;;;;;41.30;23.90;;;;;;;;;;5072120;28;20258;-86
2021/01/14 11:05:11;;;;;;;41.67;24.93;;;;;;;;;;5072189;28;20211;-86
2021/01/14 11:07:36;;;;;;;38.70;22.90;;;;;;;;;;5072506;28;20182;-83
2021/01/14 11:10:05;;;;;;;44.70;25.53;;;;;;;;;;5071046;28;20262;-84
2021/01/14 11:12:31;;;;;;;33.90;20.83;;;;;;;;;;5072073;28;20183;-83
2021/01/14 11:14:56;;;;;;;37.57;22.27;;;;;;;;;;5072329;28;20583;-83
2021/01/14 11:17:21;;;;;;;45.83;24.97;;;;;;;;;;5071947;28;20190;-84
2021/01/14 11:19:47;;;;;;;45.10;26.00;;;;;;;;;;5071035;28;20175;-83
2021/01/14 11:22:12;;;;;;;47.83;28.17;;;;;;;;;;5072115;28;20187;-83
2021/01/14 11:24:37;;;;;;;44.03;26.90;;;;;;;;;;5072427;28;20317;-84
2021/01/14 11:27:03;;;;;;;42.97;25.30;;;;;;;;;;5072039;28;20229;-84
2021/01/14 11:29:32;;;;;;;43.87;25.40;;;;;;;;;;5084040;28;20206;-84
2021/01/14 11:31:58;;;;;;;48.93;27.50;;;;;;;;;;5095650;28;20179;-84
2021/01/14 11:34:23;;;;;;;48.90;27.43;;;;;;;;;;5094158;28;20177;-84
2021/01/14 11:36:48;;;;;;;53.43;30.33;;;;;;;;;;5096453;28;20173;-84
2021/01/14 11:39:14;;;;;;;54.67;30.37;;;;;;;;;;5096089;28;20177;-84
2021/01/14 11:41:39;;;;;;;57.67;32.33;;;;;;;;;;5095864;28;20169;-84
2021/01/14 11:44:04;;;;;;;71.80;36.80;;;;;;;;;;5095706;28;20194;-84
2021/01/14 11:46:30;;;;;;;62.97;32.87;;;;;;;;;;5095980;28;20182;-84
2021/01/14 11:48:55;;;;;;;53.33;31.20;;;;;;;;;;5095979;28;20182;-84
2021/01/14 11:51:20;;;;;;;58.10;32.20;;;;;;;;;;5094554;28;20676;-84
2021/01/14 11:53:46;;;;;;;53.27;32.33;;;;;;;;;;5095575;28;20528;-84
2021/01/14 11:56:14;;;;;;;51.23;28.97;;;;;;;;;;5095446;28;20186;-83
2021/01/14 11:58:39;;;;;;;44.10;25.80;;;;;;;;;;5095118;28;20171;-84
2021/01/14 12:01:05;;;;;;;39.33;22.90;;;;;;;;;;5095076;28;20233;-84
2021/01/14 12:03:31;;;;;;;41.27;23.80;;;;;;;;;;5094036;28;20672;-84
2021/01/14 12:05:56;;;;;;;37.83;22.23;;;;;;;;;;5095411;28;20198;-84
2021/01/14 12:08:22;;;;;;;35.60;22.83;;;;;;;;;;5095587;28;20259;-84
2021/01/14 12:10:47;;;;;;;42.80;25.30;;;;;;;;;;5095661;28;20162;-84
2021/01/14 12:13:12;;;;;;;37.93;24.20;;;;;;;;;;5095240;28;20247;-84
2021/01/14 12:15:38;;;;;;;41.97;23.70;;;;;;;;;;5095548;28;20174;-84
2021/01/14 12:18:03;;;;;;;43.37;25.90;;;;;;;;;;5079915;28;20176;-84
2021/01/14 12:20:28;;;;;;;40.23;24.37;;;;;;;;;;5073512;28;20248;-84
2021/01/14 12:22:54;;;;;;;42.63;25.37;;;;;;;;;;5074669;28;20175;-85
2021/01/14 12:25:19;;;;;;;41.50;22.60;;;;;;;;;;5075123;28;20167;-86
2021/01/14 12:27:44;;;;;;;42.43;21.00;;;;;;;;;;5075257;28;20171;-84
2021/01/14 12:30:10;;;;;;;37.00;22.50;;;;;;;;;;5075022;28;20179;-84
2021/01/14 12:32:36;;;;;;;40.80;22.87;;;;;;;;;;5074988;28;20684;-84
2021/01/14 12:35:02;;;;;;;37.20;21.13;;;;;;;;;;5074524;28;20201;-83
2021/01/14 12:37:31;;;;;;;35.00;20.50;;;;;;;;;;5074585;28;20179;-84
2021/01/14 12:39:56;;;;;;;38.87;22.50;;;;;;;;;;5074429;28;20171;-84
2021/01/14 12:42:22;;;;;;;37.73;21.67;;;;;;;;;;5073020;28;20646;-84
2021/01/14 12:44:47;;;;;;;35.77;20.60;;;;;;;;;;5074373;28;20194;-83
2021/01/14 12:47:12;;;;;;;36.60;19.60;;;;;;;;;;5082372;28;20193;-85
2021/01/14 12:49:38;;;;;;;30.60;18.03;;;;;;;;;;5094601;28;20261;-85
2021/01/14 12:52:03;;;;;;;32.03;19.83;;;;;;;;;;5094121;28;20170;-85
2021/01/14 12:54:28;;;;;;;29.67;18.27;;;;;;;;;;5091181;28;20171;-84
2021/01/14 12:56:54;;;;;;;38.57;22.87;;;;;;;;;;5075793;28;20545;-84
2021/01/14 12:59:19;;;;;;;40.00;21.80;;;;;;;;;;5073832;28;20206;-84
2021/01/14 13:01:44;;;;;;;37.03;20.70;;;;;;;;;;5072505;28;20243;-85
2021/01/14 13:04:16;;;;;;;43.40;25.20;;;;;;;;;;5072244;28;20245;-84
2021/01/14 13:06:41;;;;;;;38.37;21.17;;;;;;;;;;5074323;28;20176;-86
2021/01/14 13:09:08;;;;;;;36.90;21.87;;;;;;;;;;5072021;28;20561;-84
2021/01/14 13:11:34;;;;;;;32.60;18.70;;;;;;;;;;5074221;28;20179;-84
2021/01/14 13:14:00;;;;;;;51.97;27.97;;;;;;;;;;5073326;28;20245;-86
2021/01/14 13:16:31;;;;;;;32.63;18.30;;;;;;;;;;5073709;28;20179;-84
2021/01/14 13:18:56;;;;;;;44.43;24.40;;;;;;;;;;5073670;28;20163;-84
2021/01/14 13:21:30;;;;;;;44.33;23.03;;;;;;;;;;5073333;28;20280;-84
2021/01/14 13:23:55;;;;;;;40.33;22.20;;;;;;;;;;5072345;28;20191;-84
2021/01/14 13:26:20;;;;;;;39.17;21.63;;;;;;;;;;5073590;28;20179;-84
2021/01/14 13:28:46;;;;;;;41.20;25.13;;;;;;;;;;5073435;28;20175;-84
2021/01/14 13:31:12;;;;;;;39.03;21.40;;;;;;;;;;5073425;28;20190;-84
2021/01/14 13:33:37;;;;;;;59.30;29.20;;;;;;;;;;5073282;28;20186;-85
2021/01/14 13:36:03;;;;;;;36.27;19.87;;;;;;;;;;5073671;28;20171;-84
2021/01/14 13:38:28;;;;;;;36.40;20.37;;;;;;;;;;5073347;28;20172;-84
2021/01/14 13:40:53;;;;;;;36.10;19.37;;;;;;;;;;5072115;28;20506;-84
2021/01/14 13:43:19;;;;;;;37.00;21.77;;;;;;;;;;5073628;28;20203;-84
2021/01/14 13:45:45;;;;;;;33.70;19.57;;;;;;;;;;5073064;28;20182;-85
2021/01/14 13:48:11;;;;;;;39.20;22.23;;;;;;;;;;5072220;28;20176;-84
2021/01/14 13:50:36;;;;;;;34.90;19.10;;;;;;;;;;5073248;28;20171;-84
2021/01/14 13:53:01;;;;;;;46.93;24.77;;;;;;;;;;5072189;28;20167;-84
2021/01/14 13:55:27;;;;;;;44.07;25.00;;;;;;;;;;5072883;28;20195;-84
2021/01/14 13:57:52;;;;;;;36.57;21.70;;;;;;;;;;5073210;28;20258;-84
2021/01/14 14:00:18;;;;;;;28.77;17.33;;;;;;;;;;5073026;28;20167;-83
2021/01/14 14:02:46;;;;;;;32.73;19.70;;;;;;;;;;5070117;28;20345;-83
2021/01/14 14:05:12;;;;;;;45.20;26.60;;;;;;;;;;5066063;28;20225;-85
2021/01/14 14:07:38;;;;;;;56.77;31.07;;;;;;;;;;5072874;28;20628;-84
2021/01/14 14:10:03;;;;;;;49.43;29.83;;;;;;;;;;5072551;28;20262;-85
2021/01/14 14:12:29;;;;;;;34.43;19.50;;;;;;;;;;5072703;28;20163;-84
2021/01/14 14:14:54;;;;;;;36.27;19.00;;;;;;;;;;5073070;28;20195;-85
2021/01/14 14:17:19;;;;;;;28.03;17.27;;;;;;;;;;5071011;28;20563;-84